LFOE

Évreux-Fauville (BA 105) Air Base Airport

Évreux/Fauville, France
TAF LFOE 251400Z 2515/2615 28015KT 9999 SCT040 TEMPO 2515/2517 28015G25KT PROB30 TEMPO 2515/2517 SCT030TCU BECMG 2601/2603 26005KT
Issued Valid From Valid To
Apr-25 @ 14:00 UTC
(4 hours ago)
Apr-25 @ 15:00 UTC
(3 hours ago)
Apr-26 @ 15:00 UTC
(in 21 hours)
Apr-25 @ 15:00 to Apr-26 @ 01:00
TAF LFOE 251400Z 2515/2615 28015KT 9999 SCT040
Wind Visibility Clouds
280° at 15 knots 10,000+ meters
  • Scattered at 4,000' AGL
Expired Click to View Apr-25 @ 15:00 to Apr-25 @ 17:00
PROB30 TEMPO 2515/2517 SCT030TCU
Clouds
  • Scattered at 3,000' AGL
Expired Click to View Apr-25 @ 15:00 to Apr-25 @ 17:00
TEMPO 2515/2517 28015G25KT
Wind
280° at 15 knots
 Gusting to 25 knots
Becoming Apr-26 @ 01:00 to Apr-26 @ 15:00
BECMG 2601/2603 26005KT
Wind Visibility Clouds
260° at 5 knots 10,000+ meters
  • Scattered at 4,000' AGL
TAF LFOE 251400Z 2515/2615 28015KT 9999 SCT040 TEMPO 2515/2517 28015G25KT PROB30 TEMPO 2515/2517 SCT030TCU BECMG 2601/2603 26005KT
Issued Apr-25 @ 14:00 UTC
(4 hours ago)
Valid From Apr-25 @ 15:00 UTC
(3 hours ago)
Valid To Apr-26 @ 15:00 UTC
(in 21 hours)
Apr-25 @ 15:00 - Apr-26 @ 01:00
Wind Visibility
280° at 15 knots 10,000+ meters
Clouds
  • Scattered at 4,000' AGL
Apr-25 @ 15:00 - Apr-25 @ 17:00
Clouds
  • Scattered at 3,000' AGL
Apr-25 @ 15:00 - Apr-25 @ 17:00
Wind
280° at 15 knots
 Gusting to 25 knots
Becoming Apr-26 @ 01:00 - Apr-26 @ 15:00
Wind Visibility
260° at 5 knots 10,000+ meters
Clouds
  • Scattered at 4,000' AGL